sensor_id;sensor_type;location;lat;lon;timestamp;temperature;humidity
52459;DHT22;38372;52.902;6.024;2022-08-18T00:02:22;18.20;99.90
52459;DHT22;38372;52.902;6.024;2022-08-18T00:04:49;18.20;99.90
52459;DHT22;38372;52.902;6.024;2022-08-18T00:07:20;18.20;99.90
52459;DHT22;38372;52.902;6.024;2022-08-18T00:09:46;18.20;99.90
52459;DHT22;38372;52.902;6.024;2022-08-18T00:12:37;18.20;99.90
52459;DHT22;38372;52.902;6.024;2022-08-18T00:15:10;18.20;99.90
52459;DHT22;38372;52.902;6.024;2022-08-18T00:17:37;18.20;99.90
52459;DHT22;38372;52.902;6.024;2022-08-18T00:20:06;18.20;99.90
52459;DHT22;38372;52.902;6.024;2022-08-18T00:22:33;18.20;99.90
52459;DHT22;38372;52.902;6.024;2022-08-18T00:24:59;18.20;99.90
52459;DHT22;38372;52.902;6.024;2022-08-18T00:27:28;18.20;99.90
52459;DHT22;38372;52.902;6.024;2022-08-18T00:29:56;18.20;99.90
52459;DHT22;38372;52.902;6.024;2022-08-18T00:32:28;18.20;99.90
52459;DHT22;38372;52.902;6.024;2022-08-18T00:34:55;18.20;99.90
52459;DHT22;38372;52.902;6.024;2022-08-18T00:37:22;18.20;99.90
52459;DHT22;38372;52.902;6.024;2022-08-18T00:39:52;18.20;99.90
52459;DHT22;38372;52.902;6.024;2022-08-18T00:42:27;18.20;99.90
52459;DHT22;38372;52.902;6.024;2022-08-18T00:44:55;18.20;99.90
52459;DHT22;38372;52.902;6.024;2022-08-18T00:47:21;18.20;99.90
52459;DHT22;38372;52.902;6.024;2022-08-18T00:49:50;18.20;99.90
52459;DHT22;38372;52.902;6.024;2022-08-18T00:52:18;18.20;99.90
52459;DHT22;38372;52.902;6.024;2022-08-18T00:54:45;18.20;99.90
52459;DHT22;38372;52.902;6.024;2022-08-18T00:57:12;18.20;99.90
52459;DHT22;38372;52.902;6.024;2022-08-18T00:59:46;18.20;99.90
52459;DHT22;38372;52.902;6.024;2022-08-18T01:02:35;18.20;99.90
52459;DHT22;38372;52.902;6.024;2022-08-18T01:05:07;18.20;99.90
52459;DHT22;38372;52.902;6.024;2022-08-18T01:07:38;18.20;99.90
52459;DHT22;38372;52.902;6.024;2022-08-18T01:10:11;18.20;99.90
52459;DHT22;38372;52.902;6.024;2022-08-18T01:12:45;18.20;99.90
52459;DHT22;38372;52.902;6.024;2022-08-18T01:15:13;18.20;99.90
52459;DHT22;38372;52.902;6.024;2022-08-18T01:17:41;18.20;99.90
52459;DHT22;38372;52.902;6.024;2022-08-18T01:20:58;18.20;99.90
52459;DHT22;38372;52.902;6.024;2022-08-18T01:23:39;18.20;99.90
52459;DHT22;38372;52.902;6.024;2022-08-18T01:26:05;18.20;99.90
52459;DHT22;38372;52.902;6.024;2022-08-18T01:28:36;18.20;99.90
52459;DHT22;38372;52.902;6.024;2022-08-18T01:31:03;18.10;99.90
52459;DHT22;38372;52.902;6.024;2022-08-18T01:33:34;18.20;99.90
52459;DHT22;38372;52.902;6.024;2022-08-18T01:36:15;18.10;99.90
52459;DHT22;38372;52.902;6.024;2022-08-18T01:38:49;18.10;99.90
52459;DHT22;38372;52.902;6.024;2022-08-18T01:41:16;18.10;99.90
52459;DHT22;38372;52.902;6.024;2022-08-18T01:43:43;18.10;99.90
52459;DHT22;38372;52.902;6.024;2022-08-18T01:46:11;18.10;99.90
52459;DHT22;38372;52.902;6.024;2022-08-18T01:48:38;18.10;99.90
52459;DHT22;38372;52.902;6.024;2022-08-18T01:51:06;18.10;99.90
52459;DHT22;38372;52.902;6.024;2022-08-18T01:53:33;18.10;99.90
52459;DHT22;38372;52.902;6.024;2022-08-18T01:55:59;18.10;99.90
52459;DHT22;38372;52.902;6.024;2022-08-18T01:58:25;18.10;99.90
52459;DHT22;38372;52.902;6.024;2022-08-18T02:00:54;18.20;99.90
52459;DHT22;38372;52.902;6.024;2022-08-18T02:03:33;18.20;99.90
52459;DHT22;38372;52.902;6.024;2022-08-18T02:06:02;18.20;99.90
52459;DHT22;38372;52.902;6.024;2022-08-18T02:08:28;18.20;99.90
52459;DHT22;38372;52.902;6.024;2022-08-18T02:10:55;18.20;99.90
52459;DHT22;38372;52.902;6.024;2022-08-18T02:13:24;18.20;99.90
52459;DHT22;38372;52.902;6.024;2022-08-18T02:15:50;18.20;99.90
52459;DHT22;38372;52.902;6.024;2022-08-18T02:18:21;18.20;99.90
52459;DHT22;38372;52.902;6.024;2022-08-18T02:20:47;18.20;99.90
52459;DHT22;38372;52.902;6.024;2022-08-18T02:23:13;18.20;99.90
52459;DHT22;38372;52.902;6.024;2022-08-18T02:25:41;18.20;99.90
52459;DHT22;38372;52.902;6.024;2022-08-18T02:28:08;18.20;99.90
52459;DHT22;38372;52.902;6.024;2022-08-18T02:30:34;18.20;99.90
52459;DHT22;38372;52.902;6.024;2022-08-18T02:33:03;18.20;99.90
52459;DHT22;38372;52.902;6.024;2022-08-18T02:35:29;18.20;99.90
52459;DHT22;38372;52.902;6.024;2022-08-18T02:37:58;18.20;99.90
52459;DHT22;38372;52.902;6.024;2022-08-18T02:40:24;18.20;99.90
52459;DHT22;38372;52.902;6.024;2022-08-18T02:42:50;18.20;99.90
52459;DHT22;38372;52.902;6.024;2022-08-18T02:45:17;18.20;99.90
52459;DHT22;38372;52.902;6.024;2022-08-18T02:47:44;18.10;99.90
52459;DHT22;38372;52.902;6.024;2022-08-18T02:50:11;18.10;99.90
52459;DHT22;38372;52.902;6.024;2022-08-18T02:52:37;18.10;99.90
52459;DHT22;38372;52.902;6.024;2022-08-18T02:55:03;18.10;99.90
52459;DHT22;38372;52.902;6.024;2022-08-18T02:57:30;18.10;99.90
52459;DHT22;38372;52.902;6.024;2022-08-18T02:59:56;18.10;99.90
52459;DHT22;38372;52.902;6.024;2022-08-18T03:02:22;18.10;99.90
52459;DHT22;38372;52.902;6.024;2022-08-18T03:04:48;18.10;99.90
52459;DHT22;38372;52.902;6.024;2022-08-18T03:07:15;18.10;99.90
52459;DHT22;38372;52.902;6.024;2022-08-18T03:09:42;18.10;99.90
52459;DHT22;38372;52.902;6.024;2022-08-18T03:12:08;18.10;99.90
52459;DHT22;38372;52.902;6.024;2022-08-18T03:14:35;18.10;99.90
52459;DHT22;38372;52.902;6.024;2022-08-18T03:17:04;18.10;99.90
52459;DHT22;38372;52.902;6.024;2022-08-18T03:19:31;18.10;99.90
52459;DHT22;38372;52.902;6.024;2022-08-18T03:21:58;18.10;99.90
52459;DHT22;38372;52.902;6.024;2022-08-18T03:24:25;18.20;99.90
52459;DHT22;38372;52.902;6.024;2022-08-18T03:26:52;18.20;99.90
52459;DHT22;38372;52.902;6.024;2022-08-18T03:29:19;18.20;99.90
52459;DHT22;38372;52.902;6.024;2022-08-18T03:31:46;18.20;99.90
52459;DHT22;38372;52.902;6.024;2022-08-18T03:34:13;18.20;99.90
52459;DHT22;38372;52.902;6.024;2022-08-18T03:36:39;18.20;99.90
52459;DHT22;38372;52.902;6.024;2022-08-18T03:39:11;18.20;99.90
52459;DHT22;38372;52.902;6.024;2022-08-18T03:41:41;18.20;99.90
52459;DHT22;38372;52.902;6.024;2022-08-18T03:44:09;18.20;99.90
52459;DHT22;38372;52.902;6.024;2022-08-18T03:46:35;18.20;99.90
52459;DHT22;38372;52.902;6.024;2022-08-18T03:49:01;18.20;99.90
52459;DHT22;38372;52.902;6.024;2022-08-18T03:51:29;18.20;99.90
52459;DHT22;38372;52.902;6.024;2022-08-18T03:53:58;18.20;99.90
52459;DHT22;38372;52.902;6.024;2022-08-18T03:56:27;18.20;99.90
52459;DHT22;38372;52.902;6.024;2022-08-18T03:58:59;18.20;99.90
52459;DHT22;38372;52.902;6.024;2022-08-18T04:01:28;18.20;99.90
52459;DHT22;38372;52.902;6.024;2022-08-18T04:03:56;18.20;99.90
52459;DHT22;38372;52.902;6.024;2022-08-18T04:06:26;18.20;99.90
52459;DHT22;38372;52.902;6.024;2022-08-18T04:08:54;18.20;99.90
52459;DHT22;38372;52.902;6.024;2022-08-18T04:11:21;18.20;99.90
52459;DHT22;38372;52.902;6.024;2022-08-18T04:13:48;18.20;99.90
52459;DHT22;38372;52.902;6.024;2022-08-18T04:16:14;18.20;99.90
52459;DHT22;38372;52.902;6.024;2022-08-18T04:18:40;18.20;99.90
52459;DHT22;38372;52.902;6.024;2022-08-18T04:21:08;18.20;99.90
52459;DHT22;38372;52.902;6.024;2022-08-18T04:23:36;18.20;99.90
52459;DHT22;38372;52.902;6.024;2022-08-18T04:26:04;18.20;99.90
52459;DHT22;38372;52.902;6.024;2022-08-18T04:28:31;18.10;99.90
52459;DHT22;38372;52.902;6.024;2022-08-18T04:30:57;18.10;99.90
52459;DHT22;38372;52.902;6.024;2022-08-18T04:33:27;18.10;99.90
52459;DHT22;38372;52.902;6.024;2022-08-18T04:35:53;18.10;99.90
52459;DHT22;38372;52.902;6.024;2022-08-18T04:38:20;18.00;99.90
52459;DHT22;38372;52.902;6.024;2022-08-18T04:40:46;18.00;99.90
52459;DHT22;38372;52.902;6.024;2022-08-18T04:43:13;18.00;99.90
52459;DHT22;38372;52.902;6.024;2022-08-18T04:45:46;18.00;99.90
52459;DHT22;38372;52.902;6.024;2022-08-18T04:48:12;18.00;99.90
52459;DHT22;38372;52.902;6.024;2022-08-18T04:50:41;18.00;99.90
52459;DHT22;38372;52.902;6.024;2022-08-18T04:53:07;18.00;99.90
52459;DHT22;38372;52.902;6.024;2022-08-18T04:55:54;18.00;99.90
52459;DHT22;38372;52.902;6.024;2022-08-18T04:58:21;18.00;99.90
52459;DHT22;38372;52.902;6.024;2022-08-18T05:00:56;18.00;99.90
52459;DHT22;38372;52.902;6.024;2022-08-18T05:03:22;18.00;99.90
52459;DHT22;38372;52.902;6.024;2022-08-18T05:05:53;18.00;99.90
52459;DHT22;38372;52.902;6.024;2022-08-18T05:08:19;18.00;99.90
52459;DHT22;38372;52.902;6.024;2022-08-18T05:10:47;18.10;99.90
52459;DHT22;38372;52.902;6.024;2022-08-18T05:13:13;18.10;99.90
52459;DHT22;38372;52.902;6.024;2022-08-18T05:15:42;18.10;99.90
52459;DHT22;38372;52.902;6.024;2022-08-18T05:18:09;18.10;99.90
52459;DHT22;38372;52.902;6.024;2022-08-18T05:20:36;18.20;99.90
52459;DHT22;38372;52.902;6.024;2022-08-18T05:23:02;18.20;99.90
52459;DHT22;38372;52.902;6.024;2022-08-18T05:25:28;18.20;99.90
52459;DHT22;38372;52.902;6.024;2022-08-18T05:27:54;18.20;99.90
52459;DHT22;38372;52.902;6.024;2022-08-18T05:30:20;18.30;99.90
52459;DHT22;38372;52.902;6.024;2022-08-18T05:32:46;18.30;99.90
52459;DHT22;38372;52.902;6.024;2022-08-18T05:35:23;18.30;99.90
52459;DHT22;38372;52.902;6.024;2022-08-18T05:40:22;18.40;99.90
52459;DHT22;38372;52.902;6.024;2022-08-18T05:42:52;18.40;99.90
52459;DHT22;38372;52.902;6.024;2022-08-18T05:45:19;18.50;99.90
52459;DHT22;38372;52.902;6.024;2022-08-18T05:47:45;18.50;99.90
52459;DHT22;38372;52.902;6.024;2022-08-18T05:50:15;18.50;99.90
52459;DHT22;38372;52.902;6.024;2022-08-18T05:52:50;18.50;99.90
52459;DHT22;38372;52.902;6.024;2022-08-18T05:58:26;18.60;99.90
52459;DHT22;38372;52.902;6.024;2022-08-18T06:01:06;18.60;99.90
52459;DHT22;38372;52.902;6.024;2022-08-18T06:03:44;18.70;99.90
52459;DHT22;38372;52.902;6.024;2022-08-18T06:06:18;18.70;99.90
52459;DHT22;38372;52.902;6.024;2022-08-18T06:08:51;18.80;99.90
52459;DHT22;38372;52.902;6.024;2022-08-18T06:11:20;18.90;99.90
52459;DHT22;38372;52.902;6.024;2022-08-18T06:13:46;19.10;99.90
52459;DHT22;38372;52.902;6.024;2022-08-18T06:19:00;19.40;99.90
52459;DHT22;38372;52.902;6.024;2022-08-18T06:26:53;19.90;99.90
52459;DHT22;38372;52.902;6.024;2022-08-18T06:29:38;20.10;99.90
52459;DHT22;38372;52.902;6.024;2022-08-18T06:32:24;20.30;99.90
52459;DHT22;38372;52.902;6.024;2022-08-18T06:40:32;20.90;99.90
52459;DHT22;38372;52.902;6.024;2022-08-18T06:42:58;21.10;99.90
52459;DHT22;38372;52.902;6.024;2022-08-18T06:45:31;21.20;99.90
52459;DHT22;38372;52.902;6.024;2022-08-18T06:48:26;21.20;99.90
52459;DHT22;38372;52.902;6.024;2022-08-18T06:50:59;21.20;99.90
52459;DHT22;38372;52.902;6.024;2022-08-18T06:53:48;21.00;99.90
52459;DHT22;38372;52.902;6.024;2022-08-18T06:56:23;20.90;99.90
52459;DHT22;38372;52.902;6.024;2022-08-18T06:58:49;20.70;99.90
52459;DHT22;38372;52.902;6.024;2022-08-18T07:01:19;20.50;99.90
52459;DHT22;38372;52.902;6.024;2022-08-18T07:03:54;20.40;99.90
52459;DHT22;38372;52.902;6.024;2022-08-18T07:08:48;20.30;99.90
52459;DHT22;38372;52.902;6.024;2022-08-18T07:14:13;20.30;99.90
52459;DHT22;38372;52.902;6.024;2022-08-18T07:16:39;20.20;99.90
52459;DHT22;38372;52.902;6.024;2022-08-18T07:19:17;20.20;99.90
52459;DHT22;38372;52.902;6.024;2022-08-18T07:22:08;20.20;99.90
52459;DHT22;38372;52.902;6.024;2022-08-18T07:27:16;20.20;99.90
52459;DHT22;38372;52.902;6.024;2022-08-18T07:32:46;20.00;99.90
52459;DHT22;38372;52.902;6.024;2022-08-18T07:35:17;20.00;99.90
52459;DHT22;38372;52.902;6.024;2022-08-18T07:37:52;20.10;99.90
52459;DHT22;38372;52.902;6.024;2022-08-18T07:40:21;20.10;99.90
52459;DHT22;38372;52.902;6.024;2022-08-18T07:43:02;20.20;99.90
52459;DHT22;38372;52.902;6.024;2022-08-18T07:45:37;20.40;99.90
52459;DHT22;38372;52.902;6.024;2022-08-18T07:48:20;20.40;99.90
52459;DHT22;38372;52.902;6.024;2022-08-18T07:51:04;20.30;99.90
52459;DHT22;38372;52.902;6.024;2022-08-18T07:53:54;20.10;99.90
52459;DHT22;38372;52.902;6.024;2022-08-18T08:01:54;19.80;99.90
52459;DHT22;38372;52.902;6.024;2022-08-18T08:04:37;19.80;99.90
52459;DHT22;38372;52.902;6.024;2022-08-18T08:07:09;19.90;99.90
52459;DHT22;38372;52.902;6.024;2022-08-18T08:12:53;20.10;99.90
52459;DHT22;38372;52.902;6.024;2022-08-18T08:15:31;20.20;99.90
52459;DHT22;38372;52.902;6.024;2022-08-18T08:20:45;20.20;99.90
52459;DHT22;38372;52.902;6.024;2022-08-18T08:23:46;20.20;99.90
52459;DHT22;38372;52.902;6.024;2022-08-18T08:36:56;20.40;99.90
52459;DHT22;38372;52.902;6.024;2022-08-18T08:45:13;20.70;99.90
52459;DHT22;38372;52.902;6.024;2022-08-18T08:50:38;21.20;99.90
52459;DHT22;38372;52.902;6.024;2022-08-18T08:55:44;22.60;99.90
52459;DHT22;38372;52.902;6.024;2022-08-18T08:58:36;23.10;99.90
52459;DHT22;38372;52.902;6.024;2022-08-18T09:01:05;23.10;99.90
52459;DHT22;38372;52.902;6.024;2022-08-18T09:22:49;23.70;99.90
52459;DHT22;38372;52.902;6.024;2022-08-18T09:35:57;23.50;99.90
52459;DHT22;38372;52.902;6.024;2022-08-18T09:38:26;23.50;99.90
52459;DHT22;38372;52.902;6.024;2022-08-18T09:41:22;23.70;99.90
52459;DHT22;38372;52.902;6.024;2022-08-18T09:44:08;23.80;99.90
52459;DHT22;38372;52.902;6.024;2022-08-18T09:51:48;23.40;99.90
52459;DHT22;38372;52.902;6.024;2022-08-18T09:54:23;23.20;99.90
52459;DHT22;38372;52.902;6.024;2022-08-18T09:57:05;23.00;99.90
52459;DHT22;38372;52.902;6.024;2022-08-18T10:04:39;23.10;99.90
52459;DHT22;38372;52.902;6.024;2022-08-18T10:07:32;23.20;99.90
52459;DHT22;38372;52.902;6.024;2022-08-18T10:24:41;22.50;99.90
52459;DHT22;38372;52.902;6.024;2022-08-18T10:29:56;22.30;99.90
52459;DHT22;38372;52.902;6.024;2022-08-18T10:32:34;22.80;99.90
52459;DHT22;38372;52.902;6.024;2022-08-18T10:35:01;23.20;99.90
52459;DHT22;38372;52.902;6.024;2022-08-18T10:37:41;23.30;99.90
52459;DHT22;38372;52.902;6.024;2022-08-18T10:42:49;23.30;99.90
52459;DHT22;38372;52.902;6.024;2022-08-18T10:45:34;23.30;99.90
52459;DHT22;38372;52.902;6.024;2022-08-18T10:56:52;24.40;99.90
52459;DHT22;38372;52.902;6.024;2022-08-18T10:59:37;24.60;99.90
52459;DHT22;38372;52.902;6.024;2022-08-18T11:05:04;24.80;99.90
52459;DHT22;38372;52.902;6.024;2022-08-18T11:07:31;24.80;99.90
52459;DHT22;38372;52.902;6.024;2022-08-18T11:10:13;24.80;99.90
52459;DHT22;38372;52.902;6.024;2022-08-18T11:15:20;25.10;99.90
52459;DHT22;38372;52.902;6.024;2022-08-18T11:20:48;25.90;99.90
52459;DHT22;38372;52.902;6.024;2022-08-18T11:23:16;26.20;99.90
52459;DHT22;38372;52.902;6.024;2022-08-18T11:25:42;26.60;99.90
52459;DHT22;38372;52.902;6.024;2022-08-18T11:28:20;26.90;99.90
52459;DHT22;38372;52.902;6.024;2022-08-18T11:30:51;27.00;99.90
52459;DHT22;38372;52.902;6.024;2022-08-18T11:33:20;26.90;99.90
52459;DHT22;38372;52.902;6.024;2022-08-18T11:35:57;26.60;99.90
52459;DHT22;38372;52.902;6.024;2022-08-18T11:38:24;26.50;99.90
52459;DHT22;38372;52.902;6.024;2022-08-18T11:41:12;26.70;99.90
52459;DHT22;38372;52.902;6.024;2022-08-18T11:43:41;26.60;99.90
52459;DHT22;38372;52.902;6.024;2022-08-18T11:46:35;26.40;99.90
52459;DHT22;38372;52.902;6.024;2022-08-18T11:49:43;26.10;99.90
52459;DHT22;38372;52.902;6.024;2022-08-18T11:52:48;25.50;99.90
52459;DHT22;38372;52.902;6.024;2022-08-18T11:55:28;24.90;99.90
52459;DHT22;38372;52.902;6.024;2022-08-18T11:57:57;24.50;99.90
52459;DHT22;38372;52.902;6.024;2022-08-18T12:00:51;24.40;99.90
52459;DHT22;38372;52.902;6.024;2022-08-18T12:03:27;24.40;99.90
52459;DHT22;38372;52.902;6.024;2022-08-18T12:06:09;24.50;99.90
52459;DHT22;38372;52.902;6.024;2022-08-18T12:08:46;24.50;99.90
52459;DHT22;38372;52.902;6.024;2022-08-18T12:11:18;24.40;99.90
52459;DHT22;38372;52.902;6.024;2022-08-18T12:13:55;24.30;99.90
52459;DHT22;38372;52.902;6.024;2022-08-18T12:16:34;24.30;99.90
52459;DHT22;38372;52.902;6.024;2022-08-18T12:19:02;24.10;99.90
52459;DHT22;38372;52.902;6.024;2022-08-18T12:21:28;24.00;99.90
52459;DHT22;38372;52.902;6.024;2022-08-18T12:23:54;24.00;99.90
52459;DHT22;38372;52.902;6.024;2022-08-18T12:26:20;24.00;99.90
52459;DHT22;38372;52.902;6.024;2022-08-18T12:28:45;24.20;99.90
52459;DHT22;38372;52.902;6.024;2022-08-18T12:31:11;24.30;99.90
52459;DHT22;38372;52.902;6.024;2022-08-18T12:33:37;24.30;99.90
52459;DHT22;38372;52.902;6.024;2022-08-18T12:36:04;24.30;99.90
52459;DHT22;38372;52.902;6.024;2022-08-18T12:38:32;24.30;99.90
52459;DHT22;38372;52.902;6.024;2022-08-18T12:40:58;24.40;99.90
52459;DHT22;38372;52.902;6.024;2022-08-18T12:43:24;24.60;99.90
52459;DHT22;38372;52.902;6.024;2022-08-18T12:45:51;24.80;99.90
52459;DHT22;38372;52.902;6.024;2022-08-18T12:48:17;24.90;99.90
52459;DHT22;38372;52.902;6.024;2022-08-18T12:50:43;24.90;99.90
52459;DHT22;38372;52.902;6.024;2022-08-18T12:53:10;24.80;99.90
52459;DHT22;38372;52.902;6.024;2022-08-18T12:55:41;24.80;99.90
52459;DHT22;38372;52.902;6.024;2022-08-18T12:58:08;24.70;99.90
52459;DHT22;38372;52.902;6.024;2022-08-18T13:00:34;24.60;99.90
52459;DHT22;38372;52.902;6.024;2022-08-18T13:03:00;24.60;99.90
52459;DHT22;38372;52.902;6.024;2022-08-18T13:05:26;24.70;99.90
52459;DHT22;38372;52.902;6.024;2022-08-18T13:07:55;24.80;99.90
52459;DHT22;38372;52.902;6.024;2022-08-18T13:10:22;25.00;99.90
52459;DHT22;38372;52.902;6.024;2022-08-18T13:12:48;25.10;99.90
52459;DHT22;38372;52.902;6.024;2022-08-18T13:15:14;24.90;99.90
52459;DHT22;38372;52.902;6.024;2022-08-18T13:17:40;24.80;99.90
52459;DHT22;38372;52.902;6.024;2022-08-18T13:20:13;24.70;99.90
52459;DHT22;38372;52.902;6.024;2022-08-18T13:22:39;24.50;99.90
52459;DHT22;38372;52.902;6.024;2022-08-18T13:25:08;24.30;99.90
52459;DHT22;38372;52.902;6.024;2022-08-18T13:27:34;24.10;99.90
52459;DHT22;38372;52.902;6.024;2022-08-18T13:30:01;24.00;99.90
52459;DHT22;38372;52.902;6.024;2022-08-18T13:32:27;23.90;99.90
52459;DHT22;38372;52.902;6.024;2022-08-18T13:34:53;23.80;99.90
52459;DHT22;38372;52.902;6.024;2022-08-18T13:37:18;23.90;99.90
52459;DHT22;38372;52.902;6.024;2022-08-18T13:39:44;24.00;99.90
52459;DHT22;38372;52.902;6.024;2022-08-18T13:42:10;24.20;99.90
52459;DHT22;38372;52.902;6.024;2022-08-18T13:44:36;24.40;99.90
52459;DHT22;38372;52.902;6.024;2022-08-18T13:47:04;24.70;99.90
52459;DHT22;38372;52.902;6.024;2022-08-18T13:49:30;24.60;99.90
52459;DHT22;38372;52.902;6.024;2022-08-18T13:51:56;24.30;99.90
52459;DHT22;38372;52.902;6.024;2022-08-18T13:54:27;24.20;99.90
52459;DHT22;38372;52.902;6.024;2022-08-18T13:56:53;24.10;99.90
52459;DHT22;38372;52.902;6.024;2022-08-18T13:59:20;24.10;99.90
52459;DHT22;38372;52.902;6.024;2022-08-18T14:01:47;24.30;99.90
52459;DHT22;38372;52.902;6.024;2022-08-18T14:04:13;24.50;99.90
52459;DHT22;38372;52.902;6.024;2022-08-18T14:06:40;24.60;99.90
52459;DHT22;38372;52.902;6.024;2022-08-18T14:09:06;24.70;99.90
52459;DHT22;38372;52.902;6.024;2022-08-18T14:11:36;24.80;99.90
52459;DHT22;38372;52.902;6.024;2022-08-18T14:14:04;24.70;99.90
52459;DHT22;38372;52.902;6.024;2022-08-18T14:16:31;24.60;99.90
52459;DHT22;38372;52.902;6.024;2022-08-18T14:18:58;24.50;99.90
52459;DHT22;38372;52.902;6.024;2022-08-18T14:21:45;24.50;99.90
52459;DHT22;38372;52.902;6.024;2022-08-18T14:24:31;24.70;99.90
52459;DHT22;38372;52.902;6.024;2022-08-18T14:27:17;24.90;99.90
52459;DHT22;38372;52.902;6.024;2022-08-18T14:29:44;24.80;99.90
52459;DHT22;38372;52.902;6.024;2022-08-18T14:32:13;24.70;99.90
52459;DHT22;38372;52.902;6.024;2022-08-18T14:34:39;24.50;99.90
52459;DHT22;38372;52.902;6.024;2022-08-18T14:37:07;24.50;99.90
52459;DHT22;38372;52.902;6.024;2022-08-18T14:39:32;24.30;99.90
52459;DHT22;38372;52.902;6.024;2022-08-18T14:41:58;24.20;99.90
52459;DHT22;38372;52.902;6.024;2022-08-18T14:44:24;24.10;99.90
52459;DHT22;38372;52.902;6.024;2022-08-18T14:46:50;24.00;99.90
52459;DHT22;38372;52.902;6.024;2022-08-18T14:49:16;23.90;99.90
52459;DHT22;38372;52.902;6.024;2022-08-18T14:51:42;23.80;99.90
52459;DHT22;38372;52.902;6.024;2022-08-18T14:54:11;24.50;99.90
52459;DHT22;38372;52.902;6.024;2022-08-18T14:56:37;25.10;99.90
52459;DHT22;38372;52.902;6.024;2022-08-18T14:59:04;25.00;99.90
52459;DHT22;38372;52.902;6.024;2022-08-18T15:01:33;25.10;99.90
52459;DHT22;38372;52.902;6.024;2022-08-18T15:03:59;25.00;99.90
52459;DHT22;38372;52.902;6.024;2022-08-18T15:06:25;24.80;99.90
52459;DHT22;38372;52.902;6.024;2022-08-18T15:08:51;24.40;99.90
52459;DHT22;38372;52.902;6.024;2022-08-18T15:11:17;24.20;99.90
52459;DHT22;38372;52.902;6.024;2022-08-18T15:13:43;24.20;99.90
52459;DHT22;38372;52.902;6.024;2022-08-18T15:16:12;24.30;99.90
52459;DHT22;38372;52.902;6.024;2022-08-18T15:18:39;24.30;99.90
52459;DHT22;38372;52.902;6.024;2022-08-18T15:21:06;24.10;99.90
52459;DHT22;38372;52.902;6.024;2022-08-18T15:23:52;23.90;99.90
52459;DHT22;38372;52.902;6.024;2022-08-18T15:26:36;23.80;99.90
52459;DHT22;38372;52.902;6.024;2022-08-18T15:29:06;23.60;99.90
52459;DHT22;38372;52.902;6.024;2022-08-18T15:31:34;23.50;99.90
52459;DHT22;38372;52.902;6.024;2022-08-18T15:34:00;23.40;99.90
52459;DHT22;38372;52.902;6.024;2022-08-18T15:36:27;23.40;99.90
52459;DHT22;38372;52.902;6.024;2022-08-18T15:38:53;23.30;99.90
52459;DHT22;38372;52.902;6.024;2022-08-18T15:41:30;23.20;99.90
52459;DHT22;38372;52.902;6.024;2022-08-18T15:43:56;23.20;99.90
52459;DHT22;38372;52.902;6.024;2022-08-18T15:46:23;23.10;99.90
52459;DHT22;38372;52.902;6.024;2022-08-18T15:48:49;23.10;99.90
52459;DHT22;38372;52.902;6.024;2022-08-18T15:51:16;23.10;99.90
52459;DHT22;38372;52.902;6.024;2022-08-18T15:53:42;23.20;99.90
52459;DHT22;38372;52.902;6.024;2022-08-18T15:56:19;23.20;99.90
52459;DHT22;38372;52.902;6.024;2022-08-18T15:58:46;23.20;99.90
52459;DHT22;38372;52.902;6.024;2022-08-18T16:01:13;23.20;99.90
52459;DHT22;38372;52.902;6.024;2022-08-18T16:03:39;23.20;99.90
52459;DHT22;38372;52.902;6.024;2022-08-18T16:06:05;23.20;99.90
52459;DHT22;38372;52.902;6.024;2022-08-18T16:08:33;23.20;99.90
52459;DHT22;38372;52.902;6.024;2022-08-18T16:11:06;23.20;99.90
52459;DHT22;38372;52.902;6.024;2022-08-18T16:13:33;23.20;99.90
52459;DHT22;38372;52.902;6.024;2022-08-18T16:15:59;23.20;99.90
52459;DHT22;38372;52.902;6.024;2022-08-18T16:18:25;23.20;99.90
52459;DHT22;38372;52.902;6.024;2022-08-18T16:20:52;23.10;99.90
52459;DHT22;38372;52.902;6.024;2022-08-18T16:23:17;23.00;99.90
52459;DHT22;38372;52.902;6.024;2022-08-18T16:25:43;22.90;99.90
52459;DHT22;38372;52.902;6.024;2022-08-18T16:28:10;22.80;99.90
52459;DHT22;38372;52.902;6.024;2022-08-18T16:30:38;22.70;99.90
52459;DHT22;38372;52.902;6.024;2022-08-18T16:33:05;22.70;99.90
52459;DHT22;38372;52.902;6.024;2022-08-18T16:35:32;22.70;99.90
52459;DHT22;38372;52.902;6.024;2022-08-18T16:38:05;22.70;99.90
52459;DHT22;38372;52.902;6.024;2022-08-18T16:40:32;22.70;99.90
52459;DHT22;38372;52.902;6.024;2022-08-18T16:42:57;22.70;99.90
52459;DHT22;38372;52.902;6.024;2022-08-18T16:45:25;23.00;99.90
52459;DHT22;38372;52.902;6.024;2022-08-18T16:47:52;23.00;99.90
52459;DHT22;38372;52.902;6.024;2022-08-18T16:50:18;22.90;99.90
52459;DHT22;38372;52.902;6.024;2022-08-18T16:52:44;22.90;99.90
52459;DHT22;38372;52.902;6.024;2022-08-18T16:55:11;22.80;99.90
52459;DHT22;38372;52.902;6.024;2022-08-18T16:57:39;22.70;99.90
52459;DHT22;38372;52.902;6.024;2022-08-18T17:00:24;22.70;99.90
52459;DHT22;38372;52.902;6.024;2022-08-18T17:03:09;22.60;99.90
52459;DHT22;38372;52.902;6.024;2022-08-18T17:06:01;22.50;99.90
52459;DHT22;38372;52.902;6.024;2022-08-18T17:08:28;22.60;99.90
52459;DHT22;38372;52.902;6.024;2022-08-18T17:11:03;22.60;99.90
52459;DHT22;38372;52.902;6.024;2022-08-18T17:13:29;22.50;99.90
52459;DHT22;38372;52.902;6.024;2022-08-18T17:15:56;22.50;99.90
52459;DHT22;38372;52.902;6.024;2022-08-18T17:18:22;22.40;99.90
52459;DHT22;38372;52.902;6.024;2022-08-18T17:20:49;22.40;99.90
52459;DHT22;38372;52.902;6.024;2022-08-18T17:23:16;22.30;99.90
52459;DHT22;38372;52.902;6.024;2022-08-18T17:25:42;22.40;99.90
52459;DHT22;38372;52.902;6.024;2022-08-18T17:28:09;22.40;99.90
52459;DHT22;38372;52.902;6.024;2022-08-18T17:30:45;22.40;99.90
52459;DHT22;38372;52.902;6.024;2022-08-18T17:33:15;22.30;99.90
52459;DHT22;38372;52.902;6.024;2022-08-18T17:35:45;22.20;99.90
52459;DHT22;38372;52.902;6.024;2022-08-18T17:38:25;22.10;99.90
52459;DHT22;38372;52.902;6.024;2022-08-18T17:40:59;22.00;99.90
52459;DHT22;38372;52.902;6.024;2022-08-18T17:43:33;21.90;99.90
52459;DHT22;38372;52.902;6.024;2022-08-18T17:48:46;21.70;99.90
52459;DHT22;38372;52.902;6.024;2022-08-18T17:54:07;21.60;99.90
52459;DHT22;38372;52.902;6.024;2022-08-18T17:56:46;21.50;99.90
52459;DHT22;38372;52.902;6.024;2022-08-18T17:59:34;21.50;99.90
52459;DHT22;38372;52.902;6.024;2022-08-18T18:02:21;21.40;99.90
52459;DHT22;38372;52.902;6.024;2022-08-18T18:04:48;21.30;99.90
52459;DHT22;38372;52.902;6.024;2022-08-18T18:07:30;21.30;99.90
52459;DHT22;38372;52.902;6.024;2022-08-18T18:10:06;21.20;99.90
52459;DHT22;38372;52.902;6.024;2022-08-18T18:12:34;21.20;99.90
52459;DHT22;38372;52.902;6.024;2022-08-18T18:15:04;21.10;99.90
52459;DHT22;38372;52.902;6.024;2022-08-18T18:17:35;21.10;99.90
52459;DHT22;38372;52.902;6.024;2022-08-18T18:20:24;21.00;99.90